< Typhoon 201702 2017 Season Typhoon 201704 >
Typhoon 201703 (NANMADOL)
General InformationTrack Information on Google MapsDetailed Wind InformationForecast History on Google MapsAccess Analytics MapList of All Images || NewsDisaster Info.WeblogTrackbackTyphoon FrontTwiphoonTyphoon Now!Typhoon ImaginationJMA Disaster Info. XMLResourceGoogle EarthGE AnimationAtom FeedGeoJSON
Detalied Best Track (Time Zone = UTC)
Year Month Day Hour Lat. Long. Pressure (hPa) Wind (kt) Class Image Chart
2017 7 1 06 15.0 132.2 1006 0 2 Image Chart
2017 7 1 12 16.8 130.5 1006 0 2 Image Chart
2017 7 1 18 18.8 128.9 1006 0 2 Image Chart
2017 7 2 00 20.7 127.1 1002 35 3 Image Chart
2017 7 2 06 21.9 125.7 1002 35 3 Image Chart
2017 7 2 12 23.5 124.8 998 40 3 Image Chart
2017 7 2 18 24.7 124.1 990 50 4 Image Chart
2017 7 3 00 26.2 124.3 990 50 4 Image Chart
2017 7 3 06 27.7 125.0 985 55 4 Image Chart
2017 7 3 12 29.4 126.2 985 55 4 Image Chart
2017 7 3 15 30.2 126.9 985 55 4 Image Chart
2017 7 3 18 31.3 127.7 985 55 4 Image Chart
2017 7 3 21 32.1 128.9 985 55 4 Image Chart
2017 7 3 23 32.7 130.0 985 55 4 Image Chart
2017 7 4 00 32.8 130.5 990 50 4 Image Chart
2017 7 4 03 33.2 132.3 990 50 4 Image Chart
2017 7 4 06 33.6 134.2 990 50 4 Image Chart
2017 7 4 07 33.7 134.8 990 50 4 Image Chart
2017 7 4 09 34.1 136.5 990 50 4 Image Chart
2017 7 4 12 34.1 138.3 990 50 4 Image Chart
2017 7 4 15 34.7 140.2 990 50 4 Image Chart
2017 7 4 18 35.5 142.6 990 50 4 Image Chart
2017 7 5 00 36.1 146.0 994 0 6 Image Chart
2017 7 5 06 36.9 150.7 994 0 6 Image Chart
2017 7 5 12 38.2 154.8 994 0 6 Image Chart
2017 7 5 18 40.3 160.2 994 0 6 Image Chart
2017 7 6 00 43.0 166.1 992 0 6 Image Chart
2017 7 6 06 46.4 169.9 988 0 6 Image Chart
2017 7 6 12 49.8 171.4 988 0 6 Image Chart
2017 7 6 18 50.6 170.4 990 0 6 Image Chart
2017 7 7 00 51.0 170.6 990 0 6 Image Chart
2017 7 7 06 51.0 171.3 988 0 6 Image Chart
2017 7 7 12 50.9 172.3 988 0 6 Image Chart
2017 7 7 18 50.9 174.6 990 0 6 Image Chart
2017 7 8 00 51.4 177.2 992 0 6 Image Chart
2017 7 8 06 52.1 179.6 992 0 6 Image Chart
2017 7 8 12 53.1 182.3 994 0 6 Image Chart
Japan Meteorological Agency Best Track Data | Correction Date : 2017-08-28
< Typhoon 201702 2017 Season Typhoon 201704 >

Help